Time;durP1;ratioP1;P1;durP2;ratioP2;P2;SDS_P1;SDS_P2;PMS_P1;PMS_P2;Temp;Humidity;BMP_temperature;BMP_pressure;BME280_temperature;BME280_humidity;BME280_pressure;Samples;Min_cycle;Max_cycle;Signal;HPM_P1;HPM_P2
2022/06/13 00:01:33;;;;;;;2.50;2.30;;;23.90;53.70;;;;;;5033580;28;20489;-65
2022/06/13 00:04:00;;;;;;;2.40;2.10;;;23.90;53.70;;;;;;5034400;28;20403;-65
2022/06/13 00:06:27;;;;;;;2.20;2.00;;;23.90;53.70;;;;;;5034426;28;20464;-65
2022/06/13 00:08:53;;;;;;;2.20;2.00;;;23.90;53.70;;;;;;5033857;28;20427;-65
2022/06/13 00:11:21;;;;;;;2.35;2.13;;;23.90;53.70;;;;;;5032486;28;20418;-65
2022/06/13 00:13:49;;;;;;;2.47;2.28;;;23.90;53.70;;;;;;5033755;28;20415;-65
2022/06/13 00:16:16;;;;;;;2.20;2.00;;;23.90;53.70;;;;;;5034205;28;20383;-65
2022/06/13 00:18:47;;;;;;;2.25;2.05;;;23.90;53.60;;;;;;5033866;28;20475;-65
2022/06/13 00:21:14;;;;;;;2.30;2.10;;;23.90;53.60;;;;;;5034203;28;20417;-65
2022/06/13 00:23:40;;;;;;;2.20;1.88;;;23.90;53.60;;;;;;5034098;28;20419;-65
2022/06/13 00:26:05;;;;;;;2.30;2.10;;;23.90;53.60;;;;;;5033285;28;20430;-65
2022/06/13 00:28:31;;;;;;;2.60;2.40;;;23.90;53.70;;;;;;5033964;28;20387;-65
2022/06/13 00:30:57;;;;;;;2.40;2.20;;;23.90;53.50;;;;;;5032115;28;20392;-65
2022/06/13 00:33:22;;;;;;;2.40;2.20;;;23.90;53.60;;;;;;5033869;28;20406;-65
2022/06/13 00:35:48;;;;;;;2.30;2.10;;;23.80;53.50;;;;;;5033743;28;20486;-65
2022/06/13 00:38:14;;;;;;;2.37;2.17;;;23.80;53.50;;;;;;5032527;28;20517;-65
2022/06/13 00:40:40;;;;;;;2.50;2.30;;;23.80;53.60;;;;;;5031923;28;20551;-65
2022/06/13 00:43:06;;;;;;;3.10;2.00;;;23.80;54.10;;;;;;5033409;28;20938;-65
2022/06/13 00:45:34;;;;;;;2.38;2.17;;;23.80;53.50;;;;;;5032482;28;20482;-65
2022/06/13 00:48:00;;;;;;;2.00;1.80;;;23.80;53.50;;;;;;5033509;28;20480;-65
2022/06/13 00:50:28;;;;;;;2.40;2.10;;;23.80;53.50;;;;;;5033547;28;20383;-65
2022/06/13 00:52:59;;;;;;;2.22;2.03;;;23.80;53.50;;;;;;5032946;28;20412;-65
2022/06/13 00:55:43;;;;;;;2.40;2.20;;;23.80;53.50;;;;;;5033575;28;20392;-64
2022/06/13 00:58:11;;;;;;;2.60;2.40;;;23.80;53.50;;;;;;5032082;28;20390;-65
2022/06/13 01:00:36;;;;;;;3.10;2.00;;;23.80;53.50;;;;;;5033380;28;20895;-65
2022/06/13 01:03:04;;;;;;;2.22;2.03;;;23.80;53.50;;;;;;5032817;28;20426;-65
2022/06/13 01:05:33;;;;;;;2.33;2.13;;;23.80;53.40;;;;;;5033199;28;20429;-65
2022/06/13 01:08:01;;;;;;;2.30;2.10;;;23.80;53.50;;;;;;5033157;28;20902;-65
2022/06/13 01:13:12;;;;;;;2.35;2.15;;;23.80;53.50;;;;;;5033066;28;20422;-64
2022/06/13 01:15:41;;;;;;;2.90;2.30;;;23.80;53.50;;;;;;5031729;28;20406;-65
2022/06/13 01:18:41;;;;;;;2.30;2.10;;;23.80;53.50;;;;;;5033063;28;20444;-64
2022/06/13 01:21:32;;;;;;;2.60;2.40;;;23.80;53.50;;;;;;5020988;28;20383;-65
2022/06/13 01:24:16;;;;;;;2.13;1.92;;;23.80;53.50;;;;;;5032854;28;20411;-65
2022/06/13 01:26:58;;;;;;;2.35;2.03;;;23.80;53.60;;;;;;5032635;28;20386;-64
2022/06/13 01:29:26;;;;;;;2.45;2.25;;;23.70;53.40;;;;;;5033057;28;20395;-65
2022/06/13 01:31:52;;;;;;;2.60;2.40;;;23.70;53.50;;;;;;5032666;28;20388;-65
2022/06/13 01:34:40;;;;;;;2.80;2.20;;;23.80;53.50;;;;;;5032755;28;20449;-65
2022/06/13 01:37:28;;;;;;;2.42;2.22;;;23.70;53.50;;;;;;5032321;28;20445;-64
2022/06/13 01:40:11;;;;;;;2.42;2.22;;;23.70;53.60;;;;;;5032686;28;20391;-65
2022/06/13 01:43:11;;;;;;;2.42;2.10;;;23.70;53.60;;;;;;5031348;28;20390;-65
2022/06/13 01:45:48;;;;;;;2.40;2.20;;;23.70;53.50;;;;;;5032518;28;20470;-65
2022/06/13 01:48:36;;;;;;;2.40;2.10;;;23.70;53.50;;;;;;5031236;28;20806;-65
2022/06/13 01:51:22;;;;;;;2.55;2.00;;;23.70;53.50;;;;;;5030668;28;20480;-65
2022/06/13 01:54:23;;;;;;;2.63;2.20;;;23.70;53.40;;;;;;5032277;28;20423;-64
2022/06/13 01:56:52;;;;;;;2.25;2.05;;;23.70;53.40;;;;;;5020812;28;20409;-65
2022/06/13 01:59:35;;;;;;;2.60;2.10;;;23.70;53.40;;;;;;5032267;28;20457;-65
2022/06/13 02:02:10;;;;;;;2.25;1.90;;;23.70;53.40;;;;;;5032194;28;20461;-65
2022/06/13 02:04:59;;;;;;;2.92;2.03;;;23.70;53.40;;;;;;5030918;28;20395;-65
2022/06/13 02:07:35;;;;;;;2.60;2.25;;;23.70;53.40;;;;;;5032170;28;20410;-65
2022/06/13 02:10:05;;;;;;;2.58;2.00;;;23.70;53.50;;;;;;5032059;28;20489;-65
2022/06/13 02:12:34;;;;;;;2.50;2.03;;;23.70;53.50;;;;;;5031986;28;20406;-65
2022/06/13 02:15:17;;;;;;;2.40;2.17;;;23.70;53.50;;;;;;5030390;28;20541;-65
2022/06/13 02:17:52;;;;;;;2.33;2.10;;;23.70;53.60;;;;;;5031818;28;20399;-65
2022/06/13 02:20:25;;;;;;;2.83;2.20;;;23.70;53.60;;;;;;5031978;28;20395;-65
2022/06/13 02:22:56;;;;;;;2.60;2.10;;;23.70;53.70;;;;;;5031104;28;20818;-65
2022/06/13 02:25:24;;;;;;;2.55;2.25;;;23.60;53.70;;;;;;5031853;28;20388;-65
2022/06/13 02:28:01;;;;;;;2.30;2.10;;;23.70;53.70;;;;;;5031678;28;20984;-65
2022/06/13 02:30:36;;;;;;;2.50;2.30;;;23.70;53.80;;;;;;5030579;28;20399;-65
2022/06/13 02:33:10;;;;;;;2.40;2.13;;;23.60;53.80;;;;;;5031300;28;20437;-65
2022/06/13 02:35:49;;;;;;;2.50;2.30;;;23.70;53.90;;;;;;5030480;28;20928;-64
2022/06/13 02:38:24;;;;;;;2.47;2.28;;;23.60;53.90;;;;;;5031732;28;20394;-65
2022/06/13 02:40:56;;;;;;;2.50;2.30;;;23.60;53.90;;;;;;5031469;28;20390;-65
2022/06/13 02:43:39;;;;;;;2.53;2.30;;;23.60;53.90;;;;;;5031726;28;20468;-65
2022/06/13 02:46:31;;;;;;;2.60;2.40;;;23.60;53.90;;;;;;5031615;28;20537;-65
2022/06/13 02:49:13;;;;;;;2.70;2.20;;;23.60;54.00;;;;;;5028081;28;20407;-65
2022/06/13 02:51:52;;;;;;;2.60;2.40;;;23.60;54.00;;;;;;5031570;28;20482;-65
2022/06/13 02:54:29;;;;;;;2.47;2.28;;;23.60;54.00;;;;;;5030160;28;20419;-65
2022/06/13 02:57:23;;;;;;;2.38;2.17;;;23.60;54.10;;;;;;5031099;28;20736;-65
2022/06/13 02:59:59;;;;;;;2.50;2.30;;;23.60;54.10;;;;;;5031359;28;20909;-65
2022/06/13 03:02:49;;;;;;;2.50;2.30;;;23.60;54.20;;;;;;5031475;28;20415;-65
2022/06/13 03:05:29;;;;;;;2.50;2.30;;;23.60;54.20;;;;;;5031185;28;20880;-65
2022/06/13 03:08:16;;;;;;;2.60;2.40;;;23.60;54.20;;;;;;5031371;28;20418;-65
2022/06/13 03:11:19;;;;;;;2.40;2.20;;;23.60;54.20;;;;;;5031231;28;20387;-65
2022/06/13 03:14:09;;;;;;;2.53;2.33;;;23.60;54.20;;;;;;5031303;28;20517;-65
2022/06/13 03:16:43;;;;;;;2.67;2.47;;;23.60;54.30;;;;;;5030023;28;20398;-65
2022/06/13 03:19:22;;;;;;;2.42;2.22;;;23.60;54.40;;;;;;5030880;28;20843;-65
2022/06/13 03:21:53;;;;;;;2.70;2.50;;;23.60;54.40;;;;;;5031018;28;20407;-65
2022/06/13 03:24:18;;;;;;;2.80;2.60;;;23.60;54.50;;;;;;5030046;28;20403;-65
2022/06/13 03:27:00;;;;;;;2.90;2.57;;;23.60;54.50;;;;;;5031091;28;20390;-65
2022/06/13 03:29:31;;;;;;;2.60;2.40;;;23.60;54.50;;;;;;5031200;28;20399;-65
2022/06/13 03:32:10;;;;;;;2.40;2.20;;;23.60;54.50;;;;;;5029784;28;20868;-65
2022/06/13 03:34:41;;;;;;;2.75;2.55;;;23.60;54.60;;;;;;5031102;28;20419;-65
2022/06/13 03:37:22;;;;;;;2.53;2.30;;;23.60;54.60;;;;;;5034601;28;20883;-65
2022/06/13 03:39:55;;;;;;;2.65;2.40;;;23.60;54.60;;;;;;5033644;28;20452;-65
2022/06/13 03:42:29;;;;;;;2.42;2.22;;;23.60;54.70;;;;;;5034986;28;20383;-65
2022/06/13 03:45:11;;;;;;;2.78;2.58;;;23.60;54.70;;;;;;5034673;28;20397;-65
2022/06/13 03:47:39;;;;;;;2.60;2.40;;;23.60;54.70;;;;;;5034872;28;20533;-65
2022/06/13 03:50:18;;;;;;;2.60;2.40;;;23.60;54.70;;;;;;5034703;28;20410;-65
2022/06/13 03:52:49;;;;;;;3.17;2.50;;;23.60;54.80;;;;;;5034577;28;20469;-65
2022/06/13 03:55:42;;;;;;;2.40;2.20;;;23.50;54.80;;;;;;5034503;28;20396;-65
2022/06/13 03:58:13;;;;;;;2.50;2.30;;;23.50;54.80;;;;;;5034634;28;20441;-65
2022/06/13 04:01:02;;;;;;;2.60;2.40;;;23.50;54.80;;;;;;5033290;28;20379;-65
2022/06/13 04:03:29;;;;;;;2.60;2.30;;;23.50;54.80;;;;;;5034538;28;20418;-65
2022/06/13 04:06:01;;;;;;;2.55;2.33;;;23.50;54.90;;;;;;5034392;28;20803;-65
2022/06/13 04:08:30;;;;;;;2.53;2.33;;;23.50;54.90;;;;;;5034406;28;20426;-65
2022/06/13 04:11:10;;;;;;;2.60;2.40;;;23.50;54.90;;;;;;5034203;28;20402;-65
2022/06/13 04:13:44;;;;;;;2.55;2.35;;;23.50;54.90;;;;;;5034249;28;20409;-65
2022/06/13 04:16:12;;;;;;;2.65;2.45;;;23.50;55.50;;;;;;5033048;28;20759;-65
2022/06/13 04:18:50;;;;;;;2.47;2.22;;;23.50;54.90;;;;;;5034167;28;20466;-65
2022/06/13 04:21:22;;;;;;;2.80;2.60;;;23.50;55.00;;;;;;5033888;28;20395;-65
2022/06/13 04:23:59;;;;;;;2.80;2.50;;;23.50;55.00;;;;;;5034016;28;20422;-65
2022/06/13 04:26:52;;;;;;;2.50;2.30;;;23.50;55.00;;;;;;5034135;28;20391;-65
2022/06/13 04:29:47;;;;;;;2.40;2.20;;;23.50;55.10;;;;;;5033837;28;20390;-65
2022/06/13 04:32:18;;;;;;;3.30;2.58;;;23.50;55.10;;;;;;5024588;28;20406;-65
2022/06/13 04:34:47;;;;;;;3.00;2.70;;;23.50;55.10;;;;;;5033720;28;20496;-65
2022/06/13 04:37:14;;;;;;;2.95;2.50;;;23.50;55.10;;;;;;5032192;28;20403;-65
2022/06/13 04:39:42;;;;;;;2.73;2.40;;;23.50;55.10;;;;;;5032547;28;20394;-65
2022/06/13 04:42:09;;;;;;;3.10;2.80;;;23.50;55.20;;;;;;5033816;28;20391;-65
2022/06/13 04:44:36;;;;;;;3.40;2.58;;;23.50;55.20;;;;;;5032547;28;20407;-64
2022/06/13 04:47:04;;;;;;;3.10;2.80;;;23.50;55.20;;;;;;5031570;28;20403;-64
2022/06/13 04:49:55;;;;;;;2.90;2.65;;;23.50;55.20;;;;;;5033745;28;20379;-65
2022/06/13 04:52:29;;;;;;;3.05;2.78;;;23.50;55.30;;;;;;5033717;28;20391;-65
2022/06/13 04:55:01;;;;;;;3.10;2.60;;;23.50;55.30;;;;;;5033312;28;20404;-65
2022/06/13 04:57:28;;;;;;;2.55;2.35;;;23.50;55.30;;;;;;5033558;28;20398;-65
2022/06/13 04:59:54;;;;;;;2.97;2.50;;;23.50;55.40;;;;;;5033417;28;20542;-65
2022/06/13 05:02:47;;;;;;;2.80;2.60;;;23.50;55.40;;;;;;5032196;28;20437;-65
2022/06/13 05:05:41;;;;;;;3.78;2.60;;;23.50;55.40;;;;;;5032915;28;20529;-65
2022/06/13 05:08:25;;;;;;;2.70;2.50;;;23.50;55.50;;;;;;5033452;28;20478;-65
2022/06/13 05:10:54;;;;;;;2.90;2.70;;;23.50;55.40;;;;;;5031944;28;20413;-64
2022/06/13 05:13:21;;;;;;;3.20;2.63;;;23.50;55.50;;;;;;5032944;28;20480;-65
2022/06/13 05:15:54;;;;;;;2.83;2.63;;;23.50;55.40;;;;;;5033127;28;20375;-65
2022/06/13 05:18:32;;;;;;;2.85;2.60;;;23.50;55.50;;;;;;5031936;28;20396;-65
2022/06/13 05:21:36;;;;;;;2.90;2.60;;;23.40;55.50;;;;;;5032772;28;20413;-65
2022/06/13 05:24:24;;;;;;;2.90;2.60;;;23.40;55.40;;;;;;4982731;28;20420;-65
2022/06/13 05:26:49;;;;;;;3.22;2.92;;;23.40;55.50;;;;;;4993612;28;20402;-64
2022/06/13 05:29:15;;;;;;;3.37;3.07;;;23.50;55.50;;;;;;4993153;28;20395;-65
2022/06/13 05:31:42;;;;;;;3.15;2.75;;;23.40;55.40;;;;;;4993383;28;20477;-65
2022/06/13 05:34:19;;;;;;;4.00;2.60;;;23.40;55.40;;;;;;4993443;28;20918;-65
2022/06/13 05:36:45;;;;;;;4.30;2.85;;;23.40;55.40;;;;;;4991860;28;20458;-65
2022/06/13 05:39:12;;;;;;;10.73;6.07;;;23.50;56.40;;;;;;4992796;28;20489;-65
2022/06/13 05:41:38;;;;;;;8.07;4.97;;;23.50;57.80;;;;;;4991889;28;20891;-64
2022/06/13 05:44:05;;;;;;;8.80;4.10;;;23.60;58.70;;;;;;4992915;28;20501;-64
2022/06/13 05:46:34;;;;;;;8.35;3.70;;;23.70;58.00;;;;;;4993130;28;20395;-64
2022/06/13 05:49:00;;;;;;;6.30;3.50;;;23.70;57.10;;;;;;5002388;28;20401;-64
2022/06/13 05:51:26;;;;;;;6.88;3.40;;;23.70;56.30;;;;;;4981861;28;20396;-64
2022/06/13 05:53:52;;;;;;;5.75;4.20;;;23.70;55.70;;;;;;4984331;28;20429;-64
2022/06/13 05:56:19;;;;;;;7.40;3.42;;;23.80;57.60;;;;;;4980082;28;20398;-65
2022/06/13 05:58:46;;;;;;;8.00;3.80;;;23.80;56.50;;;;;;4980846;28;20410;-64
2022/06/13 06:01:13;;;;;;;7.55;3.30;;;23.80;56.70;;;;;;4977498;28;20388;-64
2022/06/13 06:03:39;;;;;;;8.77;3.50;;;23.80;56.90;;;;;;4972858;28;20495;-65
2022/06/13 06:06:05;;;;;;;6.22;3.40;;;23.80;57.30;;;;;;4973175;28;21113;-64
2022/06/13 06:08:35;;;;;;;7.55;3.70;;;23.80;57.40;;;;;;4972678;28;20416;-65
2022/06/13 06:11:01;;;;;;;7.70;3.28;;;23.80;57.40;;;;;;4972732;28;20484;-65
2022/06/13 06:13:28;;;;;;;6.03;3.30;;;23.80;57.30;;;;;;4972456;28;20506;-65
2022/06/13 06:15:55;;;;;;;5.90;3.42;;;23.80;57.40;;;;;;4971787;28;20487;-64
2022/06/13 06:18:23;;;;;;;6.63;3.40;;;23.90;57.40;;;;;;4972646;28;20389;-64
2022/06/13 06:20:48;;;;;;;6.82;3.30;;;23.90;57.50;;;;;;5010887;28;20917;-65
2022/06/13 06:23:14;;;;;;;5.67;3.00;;;23.90;57.50;;;;;;5047401;28;20413;-65
2022/06/13 06:25:41;;;;;;;6.60;3.35;;;23.90;57.50;;;;;;5050299;28;20406;-65
2022/06/13 06:28:09;;;;;;;6.05;3.25;;;23.90;57.50;;;;;;5050106;28;20425;-65
2022/06/13 06:30:35;;;;;;;4.53;2.90;;;23.90;57.40;;;;;;5051144;28;20385;-65
2022/06/13 06:33:01;;;;;;;6.30;3.20;;;23.90;57.40;;;;;;5034126;28;20419;-66
2022/06/13 06:35:28;;;;;;;7.30;3.40;;;23.90;57.30;;;;;;5023517;28;20391;-65
2022/06/13 06:37:55;;;;;;;6.38;3.20;;;23.90;57.40;;;;;;5031410;28;20392;-66
2022/06/13 06:40:24;;;;;;;8.95;3.22;;;23.90;57.80;;;;;;5048377;28;20408;-65
2022/06/13 06:42:50;;;;;;;4.60;3.05;;;23.90;57.90;;;;;;5051213;28;20393;-66
2022/06/13 06:45:16;;;;;;;7.63;3.53;;;23.80;57.90;;;;;;5050444;28;20408;-65
2022/06/13 06:47:42;;;;;;;6.15;3.40;;;23.90;58.40;;;;;;5050774;28;20389;-65
2022/06/13 06:50:16;;;;;;;8.02;3.60;;;23.90;58.00;;;;;;5051110;28;20456;-65
2022/06/13 06:52:42;;;;;;;6.50;3.35;;;23.80;57.90;;;;;;5049449;28;20932;-65
2022/06/13 07:00:47;;;;;;;5.13;3.30;;;23.80;57.50;;;;;;5031502;28;20437;-65
2022/06/13 07:03:13;;;;;;;5.72;3.30;;;23.80;57.40;;;;;;5030681;28;20883;-65
2022/06/13 07:05:39;;;;;;;5.30;3.20;;;23.80;57.40;;;;;;5031095;28;20398;-65
2022/06/13 07:08:05;;;;;;;4.88;3.00;;;23.80;57.30;;;;;;5030971;28;20392;-65
2022/06/13 07:10:30;;;;;;;4.90;3.00;;;23.80;57.30;;;;;;5034086;28;20466;-65
2022/06/13 07:12:56;;;;;;;5.57;3.20;;;23.80;57.30;;;;;;5034852;28;20498;-65
2022/06/13 07:15:22;;;;;;;5.07;2.97;;;23.80;57.20;;;;;;5048621;28;20391;-65
2022/06/13 07:17:47;;;;;;;6.60;3.20;;;23.80;57.20;;;;;;5034887;28;20394;-65
2022/06/13 07:20:13;;;;;;;5.05;2.85;;;23.80;57.10;;;;;;5034885;28;21090;-65
2022/06/13 07:22:48;;;;;;;5.07;2.97;;;23.80;57.00;;;;;;5034245;28;20403;-65
2022/06/13 07:25:17;;;;;;;4.97;3.10;;;23.80;57.00;;;;;;5034550;28;20430;-65
2022/06/13 07:27:44;;;;;;;4.22;2.90;;;23.80;57.00;;;;;;5033293;28;20469;-65
2022/06/13 07:30:11;;;;;;;5.72;3.20;;;23.80;57.00;;;;;;5034740;28;20401;-65
2022/06/13 07:32:37;;;;;;;4.72;2.70;;;23.70;56.90;;;;;;5034529;28;20809;-65
2022/06/13 07:35:03;;;;;;;4.40;2.70;;;23.70;56.90;;;;;;5034305;28;20485;-65
2022/06/13 07:40:13;;;;;;;4.53;2.65;;;23.70;56.90;;;;;;5034833;28;20401;-65
2022/06/13 07:42:43;;;;;;;3.67;2.80;;;23.70;56.90;;;;;;5034816;28;20383;-65
2022/06/13 07:45:15;;;;;;;3.47;2.67;;;23.70;56.80;;;;;;5034314;28;20391;-65
2022/06/13 07:47:42;;;;;;;4.63;2.80;;;23.70;56.80;;;;;;5034382;28;20394;-65
2022/06/13 07:50:12;;;;;;;3.78;2.75;;;23.70;56.80;;;;;;5034346;28;20391;-65
2022/06/13 07:52:38;;;;;;;3.60;2.80;;;23.70;56.80;;;;;;5034150;28;20387;-65
2022/06/13 07:55:04;;;;;;;3.47;2.70;;;23.80;56.80;;;;;;5033663;28;20406;-65
2022/06/13 07:57:29;;;;;;;4.30;2.80;;;23.70;56.80;;;;;;5032864;28;21106;-65
2022/06/13 07:59:55;;;;;;;3.93;2.70;;;23.70;56.70;;;;;;5034382;28;20875;-66
2022/06/13 08:02:21;;;;;;;5.78;2.88;;;23.70;56.70;;;;;;5034378;28;20426;-65
2022/06/13 08:04:46;;;;;;;3.83;2.43;;;23.70;56.70;;;;;;5034157;28;20438;-66
2022/06/13 08:07:15;;;;;;;5.72;3.00;;;23.70;56.70;;;;;;5033815;28;20882;-66
2022/06/13 08:09:41;;;;;;;6.13;3.20;;;23.70;56.90;;;;;;5034164;28;20446;-65
2022/06/13 08:12:07;;;;;;;4.57;3.05;;;23.70;57.50;;;;;;5033157;28;20514;-66
2022/06/13 08:14:34;;;;;;;8.57;2.97;;;23.70;58.00;;;;;;5033540;28;20419;-66
2022/06/13 08:16:59;;;;;;;5.63;3.10;;;23.70;58.20;;;;;;5033543;28;20391;-64
2022/06/13 08:19:25;;;;;;;9.23;3.20;;;23.80;58.00;;;;;;5033517;28;20399;-65
2022/06/13 08:21:51;;;;;;;8.07;3.20;;;23.80;59.20;;;;;;5033109;28;20490;-65
2022/06/13 08:24:17;;;;;;;9.43;3.47;;;23.80;59.80;;;;;;5033954;28;20887;-66
2022/06/13 08:26:43;;;;;;;9.07;3.45;;;23.80;60.40;;;;;;5033548;28;20395;-67
2022/06/13 08:29:11;;;;;;;5.68;3.22;;;23.90;61.00;;;;;;5033959;28;20396;-65
2022/06/13 08:31:37;;;;;;;4.65;3.08;;;23.90;61.30;;;;;;5033493;28;20387;-66
2022/06/13 08:34:04;;;;;;;5.45;3.00;;;23.90;61.40;;;;;;5048709;28;20580;-66
2022/06/13 08:36:30;;;;;;;7.00;3.53;;;23.90;61.40;;;;;;5033773;28;21056;-65
2022/06/13 08:38:56;;;;;;;6.57;3.22;;;23.90;61.50;;;;;;5033859;28;20390;-65
2022/06/13 08:41:52;;;;;;;6.95;3.28;;;24.00;61.80;;;;;;5033242;28;20437;-65
2022/06/13 08:44:36;;;;;;;5.93;3.15;;;24.00;62.30;;;;;;5017967;28;20395;-65
2022/06/13 08:47:22;;;;;;;5.75;3.30;;;24.00;62.80;;;;;;5034339;28;20441;-66
2022/06/13 08:50:30;;;;;;;4.68;3.10;;;24.00;63.30;;;;;;5033225;28;20449;-65
2022/06/13 08:53:16;;;;;;;6.10;3.03;;;24.00;62.10;;;;;;5033540;28;20426;-64
2022/06/13 08:56:05;;;;;;;6.60;3.00;;;24.00;62.40;;;;;;5033009;28;20433;-64
2022/06/13 08:58:42;;;;;;;5.57;2.90;;;24.00;62.40;;;;;;5032957;28;20387;-65
2022/06/13 09:01:12;;;;;;;5.50;2.90;;;24.00;62.30;;;;;;5031761;28;20391;-65
2022/06/13 09:04:07;;;;;;;6.05;3.03;;;24.00;62.40;;;;;;5033136;28;20394;-65
2022/06/13 09:06:40;;;;;;;4.78;2.95;;;24.00;62.50;;;;;;5031779;28;20395;-65
2022/06/13 09:09:22;;;;;;;5.47;3.00;;;24.00;61.90;;;;;;5032436;28;20463;-66
2022/06/13 09:11:52;;;;;;;6.95;3.38;;;24.00;62.00;;;;;;5032769;28;20397;-65
2022/06/13 09:14:39;;;;;;;6.97;3.10;;;24.00;62.20;;;;;;5033791;28;20441;-65
2022/06/13 09:17:04;;;;;;;13.45;3.33;;;24.00;62.50;;;;;;5032833;28;20391;-65
2022/06/13 09:19:54;;;;;;;6.28;3.03;;;24.00;62.80;;;;;;5032462;28;20404;-65
2022/06/13 09:22:58;;;;;;;6.13;3.30;;;24.00;63.00;;;;;;5048623;28;20751;-65
2022/06/13 09:25:23;;;;;;;6.57;3.00;;;24.10;63.40;;;;;;4971352;28;20415;-65
2022/06/13 09:28:14;;;;;;;7.00;3.00;;;24.10;63.50;;;;;;5020652;28;20381;-65
2022/06/13 09:30:56;;;;;;;5.63;3.10;;;24.10;63.20;;;;;;5031701;28;20397;-65
2022/06/13 09:33:34;;;;;;;6.18;2.80;;;24.00;63.40;;;;;;5031041;28;20414;-65
2022/06/13 09:36:12;;;;;;;4.55;2.83;;;24.10;63.40;;;;;;5047721;28;20383;-65
2022/06/13 09:38:44;;;;;;;5.78;3.10;;;24.10;63.20;;;;;;5032578;28;20983;-65
2022/06/13 09:41:10;;;;;;;8.10;3.30;;;24.10;62.70;;;;;;5032165;28;20387;-65
2022/06/13 09:43:50;;;;;;;7.47;3.20;;;24.10;63.40;;;;;;5032245;28;20391;-65
2022/06/13 09:46:30;;;;;;;4.80;3.10;;;24.20;63.20;;;;;;5031874;28;20395;-65
2022/06/13 09:49:10;;;;;;;7.10;3.07;;;24.10;62.70;;;;;;5030763;28;20548;-65
2022/06/13 09:52:17;;;;;;;7.10;2.80;;;24.10;63.40;;;;;;5030381;28;21173;-65
2022/06/13 09:55:10;;;;;;;7.03;2.85;;;24.20;63.20;;;;;;5008803;28;20934;-67
2022/06/13 09:58:06;;;;;;;6.00;2.90;;;24.20;63.40;;;;;;5047394;28;20406;-65
2022/06/13 10:00:40;;;;;;;5.80;2.80;;;24.20;63.40;;;;;;5031866;28;20426;-66
2022/06/13 10:03:30;;;;;;;5.82;3.05;;;24.20;64.00;;;;;;5031961;28;20387;-66
2022/06/13 10:06:05;;;;;;;5.35;2.97;;;24.30;64.70;;;;;;5003860;28;20399;-65
2022/06/13 10:08:49;;;;;;;6.03;2.97;;;24.40;64.30;;;;;;5030604;28;20755;-65
2022/06/13 10:11:34;;;;;;;8.77;7.88;;;24.40;63.70;;;;;;5031578;28;20421;-65
2022/06/13 10:14:11;;;;;;;4.70;3.90;;;24.50;63.00;;;;;;5030695;28;20419;-65
2022/06/13 10:16:40;;;;;;;6.27;3.30;;;24.60;63.30;;;;;;5031346;28;20860;-65
2022/06/13 10:19:17;;;;;;;7.72;3.20;;;24.60;63.50;;;;;;5031638;28;20391;-65
2022/06/13 10:21:45;;;;;;;5.25;2.72;;;24.70;63.30;;;;;;5030224;28;20494;-65
2022/06/13 10:24:23;;;;;;;4.78;2.85;;;24.70;63.00;;;;;;5029210;28;20486;-70
2022/06/13 10:27:27;;;;;;;3.93;2.77;;;24.70;63.40;;;;;;5031550;28;20387;-68
2022/06/13 10:30:24;;;;;;;4.95;3.00;;;24.70;63.20;;;;;;5031462;28;20409;-68
2022/06/13 10:33:19;;;;;;;5.60;3.65;;;24.70;63.00;;;;;;5030556;28;20391;-66
2022/06/13 10:36:07;;;;;;;6.45;5.30;;;24.70;63.10;;;;;;5031021;28;20477;-66
2022/06/13 10:38:55;;;;;;;5.40;4.00;;;24.80;65.50;;;;;;5000397;28;20942;-66
2022/06/13 10:41:24;;;;;;;4.43;3.70;;;24.80;63.70;;;;;;5030111;28;20394;-64
2022/06/13 10:43:50;;;;;;;3.72;3.10;;;24.80;62.80;;;;;;5030724;28;20391;-64
2022/06/13 10:46:16;;;;;;;3.40;3.00;;;24.70;62.10;;;;;;5030638;28;20395;-65
2022/06/13 10:48:44;;;;;;;3.30;2.47;;;24.70;62.10;;;;;;5030999;28;20487;-65
2022/06/13 10:51:10;;;;;;;2.60;2.40;;;24.70;62.00;;;;;;5031169;28;20383;-66
2022/06/13 10:53:41;;;;;;;3.83;2.50;;;24.70;62.00;;;;;;5029021;28;20513;-65
2022/06/13 10:56:14;;;;;;;6.13;2.53;;;24.80;63.30;;;;;;5030360;28;20414;-65
2022/06/13 10:58:48;;;;;;;7.40;2.40;;;25.00;64.10;;;;;;5031195;28;20879;-65
2022/06/13 11:01:17;;;;;;;4.35;2.30;;;25.20;63.80;;;;;;5030016;28;20403;-65
2022/06/13 11:04:15;;;;;;;5.28;2.40;;;25.20;64.10;;;;;;5030017;28;20887;-65
2022/06/13 11:06:57;;;;;;;4.65;2.38;;;25.20;63.80;;;;;;5026735;28;20403;-65
2022/06/13 11:09:28;;;;;;;6.47;2.20;;;25.20;64.40;;;;;;5030700;28;20391;-66
2022/06/13 11:12:00;;;;;;;4.95;2.10;;;25.20;63.60;;;;;;5031188;28;20391;-65
2022/06/13 11:14:36;;;;;;;3.97;2.25;;;25.10;63.50;;;;;;5030982;28;20432;-65
2022/06/13 11:22:40;;;;;;;6.22;2.20;;;25.10;63.20;;;;;;5030912;28;20410;-65
2022/06/13 11:25:14;;;;;;;4.68;2.10;;;25.10;62.90;;;;;;5030876;28;20887;-66
2022/06/13 11:27:40;;;;;;;4.87;2.00;;;25.10;62.80;;;;;;5030991;28;20919;-66
2022/06/13 11:30:27;;;;;;;4.68;2.20;;;25.10;62.20;;;;;;5030676;28;20391;-66
2022/06/13 11:32:56;;;;;;;3.92;2.10;;;25.10;62.30;;;;;;5029453;28;20899;-66
2022/06/13 11:35:45;;;;;;;5.23;2.20;;;25.10;61.90;;;;;;5030142;28;20410;-66
2022/06/13 11:38:19;;;;;;;5.50;2.53;;;25.10;61.90;;;;;;5001382;28;20966;-65
2022/06/13 11:40:47;;;;;;;3.13;2.30;;;25.10;61.90;;;;;;5030614;28;20442;-66
2022/06/13 11:43:23;;;;;;;4.25;2.25;;;25.10;61.40;;;;;;5031017;28;20394;-65
2022/06/13 11:46:01;;;;;;;3.90;2.10;;;25.10;61.20;;;;;;5030567;28;20387;-66
2022/06/13 11:48:28;;;;;;;3.93;2.20;;;25.00;60.90;;;;;;5030725;28;20391;-66
2022/06/13 11:51:03;;;;;;;3.13;2.20;;;25.00;60.50;;;;;;5030799;28;20402;-67
2022/06/13 11:53:35;;;;;;;3.75;2.30;;;25.00;61.00;;;;;;5030224;28;20903;-67
2022/06/13 11:56:08;;;;;;;4.50;2.35;;;24.90;59.80;;;;;;5030740;28;20394;-65
2022/06/13 11:58:38;;;;;;;3.80;2.30;;;24.90;60.00;;;;;;5034479;28;20395;-65
2022/06/13 12:01:22;;;;;;;3.73;2.20;;;24.90;60.00;;;;;;5034380;28;20422;-65
2022/06/13 12:04:18;;;;;;;3.42;2.10;;;24.90;60.00;;;;;;5034088;28;20941;-65
2022/06/13 12:06:50;;;;;;;2.78;2.10;;;24.90;60.00;;;;;;5013740;28;20381;-65
2022/06/13 12:09:24;;;;;;;3.60;2.10;;;25.00;59.90;;;;;;5014312;28;20932;-64
2022/06/13 12:12:01;;;;;;;4.45;2.25;;;25.00;60.00;;;;;;5016229;28;20473;-64
2022/06/13 12:14:28;;;;;;;3.30;2.10;;;25.00;60.00;;;;;;5014144;28;20424;-65
2022/06/13 12:16:59;;;;;;;3.20;2.10;;;25.00;60.00;;;;;;5014976;28;20395;-65
2022/06/13 12:19:37;;;;;;;4.25;2.05;;;25.00;60.10;;;;;;5016620;28;20397;-64
2022/06/13 12:22:18;;;;;;;3.10;2.20;;;25.00;60.00;;;;;;5013575;28;20788;-64
2022/06/13 12:24:55;;;;;;;3.35;2.05;;;25.00;60.10;;;;;;5014163;28;20385;-66
2022/06/13 12:27:33;;;;;;;3.70;2.20;;;25.00;59.90;;;;;;5013701;28;20385;-64
2022/06/13 12:30:04;;;;;;;3.00;1.93;;;25.00;60.00;;;;;;5014073;28;20529;-65
2022/06/13 12:32:39;;;;;;;4.20;2.13;;;25.00;59.90;;;;;;5014043;28;20416;-65
2022/06/13 12:35:14;;;;;;;3.92;2.10;;;25.00;60.10;;;;;;5012529;28;20566;-64
2022/06/13 12:37:51;;;;;;;3.20;2.10;;;25.00;60.00;;;;;;5012710;28;20393;-65
2022/06/13 12:40:35;;;;;;;2.35;2.08;;;25.00;59.80;;;;;;5014160;28;20400;-66
2022/06/13 12:43:32;;;;;;;2.17;1.83;;;25.00;59.70;;;;;;5013878;28;20813;-65
2022/06/13 12:46:00;;;;;;;2.70;1.83;;;25.00;59.20;;;;;;5013652;28;20389;-65
2022/06/13 12:49:03;;;;;;;4.07;2.10;;;25.00;58.90;;;;;;5014744;28;20389;-66
2022/06/13 12:51:42;;;;;;;6.07;2.20;;;25.00;59.10;;;;;;5009122;28;20389;-66
2022/06/13 12:54:38;;;;;;;5.63;2.22;;;25.20;59.20;;;;;;5011584;28;20527;-66
2022/06/13 12:57:41;;;;;;;4.40;2.00;;;25.10;58.70;;;;;;5012885;28;20520;-67
2022/06/13 13:00:09;;;;;;;4.28;2.10;;;25.10;58.60;;;;;;5013146;28;20458;-66
2022/06/13 13:03:00;;;;;;;5.25;2.10;;;25.10;58.60;;;;;;5013406;28;20389;-67
2022/06/13 13:05:45;;;;;;;5.38;2.15;;;25.10;58.60;;;;;;5017639;28;20462;-67
2022/06/13 13:08:41;;;;;;;4.93;2.20;;;25.00;58.50;;;;;;5048370;28;20434;-67
2022/06/13 13:11:37;;;;;;;2.55;2.20;;;25.00;58.50;;;;;;5008808;28;20525;-67
2022/06/13 13:14:33;;;;;;;4.07;2.17;;;25.00;58.50;;;;;;5048353;28;20447;-66
2022/06/13 13:17:12;;;;;;;3.63;2.20;;;25.00;58.40;;;;;;5031458;28;20461;-67
2022/06/13 13:20:03;;;;;;;5.85;2.05;;;25.00;58.40;;;;;;5032422;28;20414;-67
2022/06/13 13:22:52;;;;;;;3.07;2.10;;;25.00;58.40;;;;;;5033674;28;20503;-67
2022/06/13 13:25:27;;;;;;;2.72;1.95;;;25.00;58.30;;;;;;5032753;28;20391;-65
2022/06/13 13:28:23;;;;;;;3.20;2.00;;;25.00;58.20;;;;;;5032622;28;20478;-67
2022/06/13 13:30:52;;;;;;;4.05;2.00;;;25.00;58.20;;;;;;5032321;28;20463;-67
2022/06/13 13:33:37;;;;;;;4.38;2.35;;;24.90;58.20;;;;;;5033754;28;20456;-67
2022/06/13 13:36:29;;;;;;;2.90;2.20;;;25.00;58.20;;;;;;5032669;28;20418;-66
2022/06/13 13:39:08;;;;;;;2.28;2.00;;;24.90;58.10;;;;;;5032449;28;20391;-67
2022/06/13 13:41:52;;;;;;;2.97;2.20;;;24.90;58.20;;;;;;5032007;28;20387;-65
2022/06/13 13:44:27;;;;;;;3.03;2.22;;;24.90;58.10;;;;;;5032349;28;20395;-65
2022/06/13 13:46:59;;;;;;;2.78;2.10;;;24.90;58.00;;;;;;5032426;28;20439;-65